createdAt,value
2018-10-02T00:02:03.284Z,5.40
2018-10-02T00:04:35.747Z,4.30
2018-10-02T00:07:08.817Z,3.27
2018-10-02T00:09:41.013Z,3.37
2018-10-02T00:12:18.715Z,3.77
2018-10-02T00:14:51.265Z,3.17
2018-10-02T00:17:23.972Z,4.07
2018-10-02T00:19:55.948Z,3.60
2018-10-02T00:22:28.292Z,2.80
2018-10-02T00:25:00.715Z,3.97
2018-10-02T00:27:33.402Z,3.60
2018-10-02T00:30:05.974Z,3.90
2018-10-02T00:32:38.398Z,4.87
2018-10-02T00:35:11.444Z,3.67
2018-10-02T00:37:44.173Z,3.47
2018-10-02T00:40:16.790Z,4.00
2018-10-02T00:42:49.937Z,3.83
2018-10-02T00:45:22.632Z,4.90
2018-10-02T00:47:55.672Z,3.87
2018-10-02T00:50:29.146Z,3.20
2018-10-02T00:53:02.155Z,3.80
2018-10-02T00:55:35.149Z,3.27
2018-10-02T00:58:07.393Z,2.87
2018-10-02T01:00:40.430Z,3.33
2018-10-02T01:03:12.887Z,3.43
2018-10-02T01:05:45.693Z,4.20
2018-10-02T01:08:19.267Z,3.13
2018-10-02T01:10:52.599Z,4.20
2018-10-02T01:13:25.957Z,2.90
2018-10-02T01:15:59.433Z,3.07
2018-10-02T01:18:31.743Z,3.60
2018-10-02T01:21:04.813Z,3.13
2018-10-02T01:23:37.464Z,3.00
2018-10-02T01:26:10.806Z,3.50
2018-10-02T01:28:44.711Z,2.80
2018-10-02T01:31:18.067Z,3.07
2018-10-02T01:33:50.436Z,2.83
2018-10-02T01:36:22.809Z,2.77
2018-10-02T01:38:55.577Z,2.77
2018-10-02T01:41:28.742Z,2.70
2018-10-02T01:44:02.709Z,2.80
2018-10-02T01:46:35.869Z,4.40
2018-10-02T01:49:07.981Z,3.57
2018-10-02T01:51:41.033Z,4.77
2018-10-02T01:54:13.354Z,3.87
2018-10-02T01:56:46.402Z,3.33
2018-10-02T01:59:19.991Z,2.67
2018-10-02T02:01:52.295Z,3.40
2018-10-02T02:04:24.974Z,3.67
2018-10-02T02:06:57.195Z,3.23
2018-10-02T02:09:30.068Z,2.60
2018-10-02T02:12:03.070Z,3.07
2018-10-02T02:14:35.933Z,2.80
2018-10-02T02:17:08.842Z,3.30
2018-10-02T02:19:41.312Z,4.27
2018-10-02T02:22:15.080Z,3.30
2018-10-02T02:24:46.957Z,2.53
2018-10-02T02:27:20.451Z,2.90
2018-10-02T02:29:53.143Z,3.67
2018-10-02T02:32:25.834Z,3.13
2018-10-02T02:34:59.282Z,2.93
2018-10-02T02:37:31.493Z,2.83
2018-10-02T02:40:04.046Z,3.00
2018-10-02T02:42:36.470Z,4.23
2018-10-02T02:45:09.212Z,3.10
2018-10-02T02:47:47.127Z,2.53
2018-10-02T02:50:25.849Z,3.03
2018-10-02T02:53:15.632Z,2.90
2018-10-02T02:55:49.805Z,3.40
2018-10-02T02:58:23.146Z,3.27
2018-10-02T03:00:57.461Z,2.93
2018-10-02T03:03:31.010Z,3.17
2018-10-02T03:06:04.476Z,2.80
2018-10-02T03:08:38.177Z,2.73
2018-10-02T03:11:13.346Z,3.33
2018-10-02T03:13:47.468Z,3.03
2018-10-02T03:16:22.378Z,2.80
2018-10-02T03:18:57.477Z,3.23
2018-10-02T03:21:31.572Z,3.37
2018-10-02T03:24:05.780Z,3.50
2018-10-02T03:26:39.125Z,3.27
2018-10-02T03:29:11.538Z,3.43
2018-10-02T03:31:45.236Z,2.80
2018-10-02T03:34:19.304Z,3.17
2018-10-02T03:36:52.934Z,2.90
2018-10-02T03:39:28.008Z,3.77
2018-10-02T03:42:02.641Z,2.93
2018-10-02T03:44:37.202Z,3.63
2018-10-02T03:47:09.291Z,3.80
2018-10-02T03:49:43.948Z,4.20
2018-10-02T03:52:18.024Z,3.60
2018-10-02T03:54:50.961Z,3.10
2018-10-02T03:57:24.683Z,3.83
2018-10-02T03:59:59.002Z,3.00
2018-10-02T04:02:33.125Z,3.03
2018-10-02T04:05:07.811Z,3.33
2018-10-02T04:07:41.930Z,4.67
2018-10-02T04:10:18.524Z,6.33
2018-10-02T04:12:51.951Z,4.80
2018-10-02T04:15:26.114Z,4.73
2018-10-02T04:18:01.381Z,4.77
2018-10-02T04:20:36.014Z,3.93
2018-10-02T04:23:08.504Z,4.20
2018-10-02T04:25:42.627Z,3.17
2018-10-02T04:28:16.517Z,4.00
2018-10-02T04:30:51.735Z,3.67
2018-10-02T04:33:25.240Z,2.80
2018-10-02T04:35:59.234Z,2.60
2018-10-02T04:38:32.420Z,3.70
2018-10-02T04:41:05.388Z,3.00
2018-10-02T04:43:38.477Z,3.30
2018-10-02T04:46:11.907Z,2.60
2018-10-02T04:48:45.256Z,3.27
2018-10-02T04:51:20.127Z,3.20
2018-10-02T04:53:53.785Z,3.00
2018-10-02T04:56:27.847Z,3.73
2018-10-02T04:59:00.960Z,3.23
2018-10-02T05:01:35.245Z,2.90
2018-10-02T05:04:08.954Z,2.70
2018-10-02T05:06:42.432Z,3.23
2018-10-02T05:09:15.657Z,3.30
2018-10-02T05:11:49.081Z,3.47
2018-10-02T05:14:25.143Z,3.30
2018-10-02T05:16:59.857Z,4.00
2018-10-02T05:19:35.808Z,3.97
2018-10-02T05:22:09.608Z,3.40
2018-10-02T05:24:42.780Z,3.57
2018-10-02T05:27:15.187Z,3.83
2018-10-02T05:29:49.193Z,3.50
2018-10-02T05:32:22.965Z,4.60
2018-10-02T05:34:56.905Z,4.10
2018-10-02T05:37:31.764Z,5.20
2018-10-02T05:40:05.402Z,5.57
2018-10-02T05:42:38.473Z,4.33
2018-10-02T05:45:12.138Z,5.23
2018-10-02T05:47:45.924Z,6.60
2018-10-02T05:50:18.810Z,9.53
2018-10-02T05:52:51.796Z,9.77
2018-10-02T05:55:24.533Z,6.83
2018-10-02T05:57:57.812Z,7.53
2018-10-02T06:00:32.425Z,6.97
2018-10-02T06:03:06.913Z,5.00
2018-10-02T06:05:41.409Z,4.13
2018-10-02T06:08:14.973Z,5.20
2018-10-02T06:10:48.185Z,4.33
2018-10-02T06:13:21.915Z,3.80
2018-10-02T06:15:55.227Z,3.60
2018-10-02T06:18:27.891Z,3.40
2018-10-02T06:21:02.749Z,3.37
2018-10-02T06:23:36.922Z,3.77
2018-10-02T06:26:12.100Z,2.80
2018-10-02T06:28:45.407Z,3.57
2018-10-02T06:31:19.787Z,3.00
2018-10-02T06:33:53.763Z,2.90
2018-10-02T06:36:26.965Z,3.97
2018-10-02T06:39:01.333Z,2.93
2018-10-02T06:41:35.561Z,3.17
2018-10-02T06:44:09.597Z,3.47
2018-10-02T06:46:44.005Z,3.37
2018-10-02T06:49:17.945Z,4.40
2018-10-02T06:51:51.261Z,4.60
2018-10-02T06:54:26.113Z,4.00
2018-10-02T06:56:59.903Z,3.97
2018-10-02T06:59:34.949Z,6.53
2018-10-02T07:02:09.069Z,4.80
2018-10-02T07:04:41.907Z,3.80
2018-10-02T07:07:15.436Z,4.03
2018-10-02T07:09:48.850Z,3.30
2018-10-02T07:12:22.258Z,8.77
2018-10-02T07:14:56.742Z,4.90
2018-10-02T07:17:31.168Z,5.53
2018-10-02T07:20:05.208Z,6.53
2018-10-02T07:22:39.894Z,4.00
2018-10-02T07:25:13.144Z,6.40
2018-10-02T07:27:46.897Z,4.17
2018-10-02T07:30:20.690Z,14.00
2018-10-02T07:32:54.441Z,3.90
2018-10-02T07:35:23.702Z,4.30
2018-10-02T07:37:52.750Z,3.03
2018-10-02T07:40:22.273Z,3.67
2018-10-02T07:42:54.665Z,5.77
2018-10-02T07:45:28.100Z,3.43
2018-10-02T07:48:02.760Z,4.77
2018-10-02T07:50:36.596Z,3.73
2018-10-02T07:53:09.228Z,3.93
2018-10-02T07:55:41.833Z,5.53
2018-10-02T07:58:17.030Z,2.90
2018-10-02T08:00:49.339Z,3.33
2018-10-02T08:03:21.714Z,3.10
2018-10-02T08:05:56.875Z,4.63
2018-10-02T08:08:30.366Z,3.50
2018-10-02T08:11:03.090Z,3.13
2018-10-02T08:13:35.020Z,3.90
2018-10-02T08:16:08.147Z,3.87
2018-10-02T08:18:40.827Z,3.73
2018-10-02T08:21:12.645Z,4.30
2018-10-02T08:23:44.748Z,2.93
2018-10-02T08:26:17.671Z,4.43
2018-10-02T08:28:50.457Z,3.30
2018-10-02T08:31:23.069Z,3.93
2018-10-02T08:33:56.167Z,5.00
2018-10-02T08:36:28.267Z,6.77
2018-10-02T08:39:00.385Z,3.30
2018-10-02T08:41:32.796Z,5.93
2018-10-02T08:44:05.027Z,3.77
2018-10-02T08:46:37.928Z,5.20
2018-10-02T08:49:09.058Z,3.87
2018-10-02T08:51:43.630Z,3.37
2018-10-02T08:54:15.646Z,4.40
2018-10-02T08:56:47.942Z,3.40
2018-10-02T08:59:19.518Z,3.37
2018-10-02T09:01:51.581Z,3.07
2018-10-02T09:04:23.328Z,3.90
2018-10-02T09:06:54.803Z,3.13
2018-10-02T09:09:27.373Z,4.63
2018-10-02T09:11:59.087Z,3.30
2018-10-02T09:14:31.304Z,3.57
2018-10-02T09:17:03.948Z,3.10
2018-10-02T09:19:36.595Z,3.10
2018-10-02T09:22:08.567Z,3.80
2018-10-02T09:24:41.204Z,4.03
2018-10-02T09:27:12.929Z,3.97
2018-10-02T09:29:49.448Z,3.03
2018-10-02T09:32:25.993Z,2.70
2018-10-02T09:35:03.310Z,3.93
2018-10-02T09:37:39.163Z,3.60
2018-10-02T09:40:15.459Z,2.90
2018-10-02T09:42:52.334Z,2.57
2018-10-02T09:45:24.321Z,3.80
2018-10-02T09:47:57.038Z,2.97
2018-10-02T09:50:29.250Z,2.70
2018-10-02T09:53:03.063Z,2.97
2018-10-02T09:55:35.146Z,2.17
2018-10-02T09:58:06.480Z,3.03
2018-10-02T10:00:43.470Z,2.67
2018-10-02T10:03:14.966Z,3.17
2018-10-02T10:05:46.817Z,3.10
2018-10-02T10:08:19.173Z,2.80
2018-10-02T10:10:52.693Z,2.30
2018-10-02T10:13:24.950Z,3.07
2018-10-02T10:15:56.637Z,3.10
2018-10-02T10:18:29.721Z,3.50
2018-10-02T10:21:03.841Z,2.80
2018-10-02T10:23:35.240Z,2.40
2018-10-02T10:26:06.740Z,2.60
2018-10-02T10:28:39.031Z,2.33
2018-10-02T10:31:10.430Z,2.80
2018-10-02T10:33:42.378Z,3.60
2018-10-02T10:36:13.866Z,2.67
2018-10-02T10:38:46.460Z,3.00
2018-10-02T10:41:18.994Z,2.57
2018-10-02T10:43:52.928Z,2.70
2018-10-02T10:46:26.574Z,2.37
2018-10-02T10:49:01.431Z,2.37
2018-10-02T10:51:35.119Z,2.20
2018-10-02T10:54:08.041Z,3.53
2018-10-02T10:56:42.091Z,3.30
2018-10-02T10:59:14.782Z,2.40
2018-10-02T11:01:49.708Z,3.23
2018-10-02T11:04:22.943Z,2.40
2018-10-02T11:06:56.222Z,3.27
2018-10-02T11:09:29.050Z,2.57
2018-10-02T11:12:03.865Z,2.50
2018-10-02T11:14:36.320Z,2.60
2018-10-02T11:17:11.491Z,2.90
2018-10-02T11:19:45.160Z,2.10
2018-10-02T11:22:17.660Z,2.90
2018-10-02T11:24:50.395Z,2.97
2018-10-02T11:27:23.652Z,2.80
2018-10-02T11:29:55.789Z,3.23
2018-10-02T11:32:28.785Z,3.15
2018-10-02T11:35:01.879Z,2.77
2018-10-02T11:37:34.705Z,3.30
2018-10-02T11:40:07.405Z,4.20
2018-10-02T11:42:40.763Z,5.60
2018-10-02T11:45:14.353Z,4.93
2018-10-02T11:47:47.018Z,5.73
2018-10-02T11:50:19.724Z,6.73
2018-10-02T11:52:52.629Z,6.40
2018-10-02T11:55:26.763Z,5.10
2018-10-02T11:57:59.354Z,4.70
2018-10-02T12:00:32.334Z,6.20
2018-10-02T12:03:06.192Z,9.93
2018-10-02T12:05:39.637Z,6.60
2018-10-02T12:08:12.594Z,10.93
2018-10-02T12:10:45.857Z,5.97
2018-10-02T12:13:19.595Z,7.67
2018-10-02T12:15:52.722Z,5.00
2018-10-02T12:18:24.985Z,5.40
2018-10-02T12:20:56.401Z,6.23
2018-10-02T12:23:28.184Z,5.97
2018-10-02T12:26:00.404Z,5.30
2018-10-02T12:28:33.190Z,5.53
2018-10-02T12:31:06.404Z,6.67
2018-10-02T12:33:39.716Z,4.77
2018-10-02T12:36:13.242Z,4.20
2018-10-02T12:38:46.860Z,5.33
2018-10-02T12:41:19.436Z,4.77
2018-10-02T12:43:53.397Z,5.23
2018-10-02T12:46:26.666Z,4.53
2018-10-02T12:48:59.125Z,3.80
2018-10-02T12:51:33.389Z,2.90
2018-10-02T12:54:03.580Z,3.27
2018-10-02T12:56:32.429Z,3.03
2018-10-02T12:59:04.934Z,4.07
2018-10-02T13:01:33.902Z,3.97
2018-10-02T13:04:07.199Z,2.93
2018-10-02T13:06:39.727Z,2.90
2018-10-02T13:09:13.616Z,3.23
2018-10-02T13:11:46.653Z,3.23
2018-10-02T13:14:20.319Z,3.43
2018-10-02T13:16:52.802Z,3.00
2018-10-02T13:19:27.031Z,3.50
2018-10-02T13:21:59.190Z,3.40
2018-10-02T13:24:32.370Z,3.30
2018-10-02T13:27:05.760Z,2.60
2018-10-02T13:29:38.615Z,3.75
2018-10-02T13:32:11.801Z,4.70
2018-10-02T13:34:45.969Z,4.43
2018-10-02T13:37:19.252Z,4.00
2018-10-02T13:39:52.193Z,3.23
2018-10-02T13:42:25.917Z,4.20
2018-10-02T13:45:00.562Z,3.27
2018-10-02T13:47:35.247Z,4.77
2018-10-02T13:50:08.169Z,9.53
2018-10-02T13:52:40.899Z,12.37
2018-10-02T13:55:14.000Z,7.43
2018-10-02T13:57:48.054Z,5.53
2018-10-02T14:00:20.279Z,5.63
2018-10-02T14:02:52.610Z,4.07
2018-10-02T14:05:25.755Z,5.63
2018-10-02T14:07:57.811Z,7.67
2018-10-02T14:10:30.452Z,11.53
2018-10-02T14:13:03.352Z,11.83
2018-10-02T14:15:35.851Z,8.97
2018-10-02T14:18:08.766Z,11.40
2018-10-02T14:20:41.308Z,6.23
2018-10-02T14:23:14.989Z,6.00
2018-10-02T14:25:48.056Z,4.40
2018-10-02T14:28:21.313Z,4.87
2018-10-02T14:30:53.934Z,4.93
2018-10-02T14:33:27.392Z,5.50
2018-10-02T14:35:59.382Z,5.60
2018-10-02T14:38:32.281Z,4.33
2018-10-02T14:41:05.606Z,5.03
2018-10-02T14:43:37.803Z,3.90
2018-10-02T14:46:10.124Z,5.30
2018-10-02T14:48:43.084Z,4.10
2018-10-02T14:51:16.179Z,3.60
2018-10-02T14:53:48.940Z,3.80
2018-10-02T14:56:22.547Z,4.13
2018-10-02T14:58:56.897Z,2.80
2018-10-02T15:01:30.581Z,2.87
2018-10-02T15:04:05.095Z,2.60
2018-10-02T15:06:39.965Z,2.80
2018-10-02T15:09:13.945Z,3.40
2018-10-02T15:11:47.133Z,2.53
2018-10-02T15:14:22.025Z,2.70
2018-10-02T15:16:55.853Z,3.67
2018-10-02T15:19:30.202Z,2.50
2018-10-02T15:22:03.786Z,3.23
2018-10-02T15:24:36.963Z,3.10
2018-10-02T15:27:11.011Z,3.73
2018-10-02T15:29:44.820Z,3.03
2018-10-02T15:32:18.881Z,3.50
2018-10-02T15:34:51.396Z,3.40
2018-10-02T15:37:23.795Z,3.57
2018-10-02T15:39:58.835Z,3.17
2018-10-02T15:42:33.506Z,4.03
2018-10-02T15:45:07.753Z,3.50
2018-10-02T15:47:42.554Z,6.57
2018-10-02T15:50:16.144Z,3.23
2018-10-02T15:52:49.462Z,3.20
2018-10-02T15:55:24.322Z,2.57
2018-10-02T15:57:58.931Z,2.93
2018-10-02T16:00:32.418Z,3.43
2018-10-02T16:03:06.184Z,2.77
2018-10-02T16:05:39.463Z,3.13
2018-10-02T16:08:14.092Z,3.07
2018-10-02T16:10:47.443Z,2.60
2018-10-02T16:13:20.293Z,2.80
2018-10-02T16:15:54.744Z,2.50
2018-10-02T16:18:29.445Z,3.20
2018-10-02T16:21:02.612Z,3.13
2018-10-02T16:23:37.672Z,2.80
2018-10-02T16:26:12.226Z,3.77
2018-10-02T16:28:45.991Z,2.80
2018-10-02T16:31:22.194Z,2.87
2018-10-02T16:33:56.066Z,2.57
2018-10-02T16:36:30.356Z,2.70
2018-10-02T16:39:03.052Z,2.77
2018-10-02T16:41:36.488Z,2.33
2018-10-02T16:44:10.616Z,2.80
2018-10-02T16:46:43.987Z,3.80
2018-10-02T16:49:18.784Z,3.37
2018-10-02T16:51:52.601Z,3.30
2018-10-02T16:54:26.574Z,3.60
2018-10-02T16:57:00.505Z,3.10
2018-10-02T16:59:34.377Z,3.10
2018-10-02T17:02:06.794Z,3.50
2018-10-02T17:04:41.766Z,3.07
2018-10-02T17:07:15.330Z,3.57
2018-10-02T17:09:48.671Z,4.70
2018-10-02T17:12:21.714Z,2.67
2018-10-02T17:14:54.795Z,3.00
2018-10-02T17:17:28.333Z,2.97
2018-10-02T17:20:02.056Z,3.93
2018-10-02T17:22:34.722Z,5.13
2018-10-02T17:25:07.289Z,3.80
2018-10-02T17:27:41.576Z,2.87
2018-10-02T17:30:15.801Z,4.17
2018-10-02T17:32:50.988Z,2.73
2018-10-02T17:35:24.723Z,4.53
2018-10-02T17:37:58.636Z,3.77
2018-10-02T17:40:32.527Z,3.43
2018-10-02T17:43:05.964Z,3.60
2018-10-02T17:45:39.534Z,2.87
2018-10-02T17:48:13.421Z,3.73
2018-10-02T17:50:47.868Z,2.70
2018-10-02T17:53:21.538Z,2.93
2018-10-02T17:55:55.021Z,3.60
2018-10-02T17:58:27.867Z,2.93
2018-10-02T18:00:59.474Z,4.43
2018-10-02T18:03:32.680Z,4.30
2018-10-02T18:06:05.697Z,4.90
2018-10-02T18:08:38.579Z,3.77
2018-10-02T18:11:10.660Z,4.20
2018-10-02T18:13:44.025Z,3.20
2018-10-02T18:16:15.816Z,4.03
2018-10-02T18:18:50.646Z,3.60
2018-10-02T18:21:23.376Z,4.47
2018-10-02T18:23:55.543Z,4.13
2018-10-02T18:26:29.986Z,4.47
2018-10-02T18:29:03.977Z,4.33
2018-10-02T18:31:36.997Z,3.70
2018-10-02T18:34:10.565Z,4.23
2018-10-02T18:36:43.730Z,3.63
2018-10-02T18:39:17.450Z,3.40
2018-10-02T18:41:51.447Z,3.90
2018-10-02T18:44:24.868Z,3.47
2018-10-02T18:46:59.479Z,3.10
2018-10-02T18:49:34.067Z,3.50
2018-10-02T18:52:07.734Z,5.80
2018-10-02T18:54:42.129Z,3.93
2018-10-02T18:57:15.812Z,4.30
2018-10-02T18:59:49.480Z,4.30
2018-10-02T19:02:23.820Z,4.23
2018-10-02T19:04:58.144Z,4.03
2018-10-02T19:07:32.058Z,4.30
2018-10-02T19:10:05.595Z,3.60
2018-10-02T19:12:42.475Z,4.17
2018-10-02T19:15:17.295Z,3.80
2018-10-02T19:17:50.540Z,4.43
2018-10-02T19:20:28.383Z,4.03
2018-10-02T19:23:01.781Z,4.80
2018-10-02T19:25:39.771Z,5.87
2018-10-02T19:28:16.565Z,4.93
2018-10-02T19:30:56.509Z,6.23
2018-10-02T19:33:30.577Z,7.00
2018-10-02T19:36:03.280Z,5.27
2018-10-02T19:38:43.277Z,6.13
2018-10-02T19:41:18.527Z,7.87
2018-10-02T19:43:52.076Z,5.50
2018-10-02T19:46:29.061Z,4.70
2018-10-02T19:49:03.070Z,5.30
2018-10-02T19:51:41.838Z,4.93
2018-10-02T19:54:15.578Z,3.93
2018-10-02T19:56:51.806Z,4.60
2018-10-02T19:59:26.396Z,7.63
2018-10-02T20:02:01.966Z,4.60
2018-10-02T20:04:35.645Z,5.53
2018-10-02T20:07:09.533Z,4.60
2018-10-02T20:09:43.644Z,4.80
2018-10-02T20:12:16.171Z,4.90
2018-10-02T20:14:50.344Z,4.77
2018-10-02T20:17:23.366Z,4.20
2018-10-02T20:19:57.069Z,4.70
2018-10-02T20:22:30.644Z,5.43
2018-10-02T20:25:04.326Z,5.33
2018-10-02T20:27:39.181Z,4.93
2018-10-02T20:30:14.183Z,5.17
2018-10-02T20:32:54.803Z,5.77
2018-10-02T20:35:28.466Z,6.33
2018-10-02T20:38:02.531Z,5.90
2018-10-02T20:40:35.845Z,4.67
2018-10-02T20:43:09.030Z,6.00
2018-10-02T20:45:42.373Z,5.13
2018-10-02T20:48:15.984Z,4.23
2018-10-02T20:50:49.372Z,5.33
2018-10-02T20:53:23.861Z,5.23
2018-10-02T20:55:58.662Z,5.30
2018-10-02T20:58:33.262Z,5.70
2018-10-02T21:01:07.196Z,4.33
2018-10-02T21:03:41.253Z,4.07
2018-10-02T21:06:22.173Z,5.57
2018-10-02T21:08:54.841Z,4.17
2018-10-02T21:11:27.425Z,6.20
2018-10-02T21:13:59.720Z,6.57
2018-10-02T21:16:33.041Z,6.50
2018-10-02T21:19:05.871Z,4.40
2018-10-02T21:21:40.344Z,5.73
2018-10-02T21:24:13.386Z,6.60
2018-10-02T21:26:48.123Z,7.17
2018-10-02T21:29:22.039Z,7.73
2018-10-02T21:31:56.009Z,5.70
2018-10-02T21:34:29.043Z,5.70
2018-10-02T21:37:02.273Z,5.93
2018-10-02T21:39:34.613Z,7.07
2018-10-02T21:42:07.414Z,6.30
2018-10-02T21:44:40.464Z,8.97
2018-10-02T21:47:14.061Z,10.27
2018-10-02T21:49:49.491Z,11.97
2018-10-02T21:52:23.468Z,9.53
2018-10-02T21:54:56.611Z,8.23
2018-10-02T21:57:29.861Z,7.70
2018-10-02T22:00:02.136Z,8.07
2018-10-02T22:02:35.291Z,7.57
2018-10-02T22:05:08.697Z,7.77
2018-10-02T22:07:41.563Z,6.27
2018-10-02T22:10:15.268Z,5.63
2018-10-02T22:12:47.761Z,5.93
2018-10-02T22:15:21.344Z,7.10
2018-10-02T22:17:54.538Z,5.10
2018-10-02T22:20:28.808Z,6.20
2018-10-02T22:23:01.467Z,6.83
2018-10-02T22:25:34.905Z,7.47
2018-10-02T22:28:08.301Z,7.27
2018-10-02T22:30:41.576Z,7.13
2018-10-02T22:33:15.429Z,7.40
2018-10-02T22:35:49.540Z,9.40
2018-10-02T22:38:22.975Z,12.40
2018-10-02T22:40:55.959Z,12.80
2018-10-02T22:43:29.034Z,16.50
2018-10-02T22:46:02.242Z,15.60
2018-10-02T22:48:36.484Z,13.70
2018-10-02T22:51:09.950Z,14.63
2018-10-02T22:53:43.131Z,12.33
2018-10-02T22:56:16.641Z,16.47
2018-10-02T22:58:49.131Z,14.83
2018-10-02T23:01:21.753Z,15.43
2018-10-02T23:03:54.446Z,8.83
2018-10-02T23:06:26.125Z,11.53
2018-10-02T23:09:00.404Z,7.33
2018-10-02T23:11:34.470Z,6.13
2018-10-02T23:14:08.423Z,5.70
2018-10-02T23:16:42.307Z,5.67
2018-10-02T23:19:15.352Z,5.27
2018-10-02T23:21:50.323Z,5.70
2018-10-02T23:24:24.623Z,5.53
2018-10-02T23:26:56.815Z,5.80
2018-10-02T23:29:29.922Z,5.93
2018-10-02T23:32:02.317Z,5.00
2018-10-02T23:34:35.180Z,5.90
2018-10-02T23:37:08.277Z,5.87
2018-10-02T23:39:40.142Z,4.63
2018-10-02T23:42:13.311Z,5.43
2018-10-02T23:44:46.546Z,5.40
2018-10-02T23:47:19.351Z,4.13
2018-10-02T23:49:52.400Z,4.20
2018-10-02T23:52:25.948Z,4.50
2018-10-02T23:54:58.577Z,3.50
2018-10-02T23:57:30.731Z,4.50
